Route Details

Aircraft Information
Group: North America Fleet
Types: B738, B752, B762, B763
Route Data
Distance: 314nm
Duration: 1h 30m
Origin METAR: KCLT 171052Z 01005KT 10SM FEW017 SCT041 BKN080 BKN250 19/18 A2998 RMK SLP146 T01940178
Dest. METAR: KBWI 170754Z 00000KT 10SM CLR 17/16 A3000 RMK AO2 SLP156 T01720156 $
Freight Data
(for Aug 18, 2022)
Load Factor:
37%
Manifested Cargo: 27,073lbs
Financial History
Total Freight: 99,422lbs
Average Load: 0lbs/flt
Fuel Used: 19,459lbs
Avg. Fuel Used: 0lbs/flt
Fuel Expense: $5,875
Avg. Fuel Expense: $0
Avg. Fuel Cost: $0/lbs
Total Gross Income: $214,445
Pilot Pay: $338
Total Expenses: $29,709
Total Revenue: $178,313
Average Revenue: $0

Capitol Logistics 331




KCLT
Charlotte/Douglas International Airport
Charlotte, North Carolina
KBWI
Baltimore/Washington International Airport
Baltimore, Maryland

Activity Log

Date Flight Route Aircraft Duration
10/09/2021 CPX7312 KILNS4 AUDII THHMP RAVNN6 B738 1h 10m
05/18/2021 CPX7312 KILNS4 AUDII THHMP RAVNN6 A30F 1h 00m